Time;durP1;ratioP1;P1;durP2;ratioP2;P2;SDS_P1;SDS_P2;PMS_P1;PMS_P2;Temp;Humidity;BMP_temperature;BMP_pressure;BME280_temperature;BME280_humidity;BME280_pressure;Samples;Min_cycle;Max_cycle;Signal;HPM_P1;HPM_P2
2022/09/25 00:01:35;;;;;;;5.25;1.90;;;9.00;99.90;;;;;;4989645;28;20046;-73
2022/09/25 00:04:02;;;;;;;5.03;1.92;;;9.00;99.90;;;;;;4989725;28;20047;-74
2022/09/25 00:06:28;;;;;;;5.28;2.20;;;9.00;99.90;;;;;;4988931;28;20054;-74
2022/09/25 00:08:55;;;;;;;6.22;2.10;;;9.00;99.90;;;;;;4971232;28;20053;-74
2022/09/25 00:11:30;;;;;;;8.15;2.38;;;8.90;99.90;;;;;;4990397;28;20043;-75
2022/09/25 00:13:56;;;;;;;4.68;1.75;;;8.90;99.90;;;;;;4987973;28;20050;-75
2022/09/25 00:16:25;;;;;;;6.85;2.05;;;8.90;99.90;;;;;;4988996;28;20047;-74
2022/09/25 00:21:36;;;;;;;7.72;2.30;;;8.90;99.90;;;;;;4990896;28;20069;-74
2022/09/25 00:24:04;;;;;;;11.88;3.00;;;8.80;99.90;;;;;;4982755;28;20047;-74
2022/09/25 00:26:33;;;;;;;11.25;3.00;;;8.80;99.90;;;;;;4982876;28;20042;-74
2022/09/25 00:29:00;;;;;;;9.80;3.05;;;8.90;99.90;;;;;;4984133;28;20053;-74
2022/09/25 00:31:26;;;;;;;10.27;2.95;;;8.90;99.90;;;;;;4983506;28;20101;-75
2022/09/25 00:33:58;;;;;;;5.18;2.30;;;8.90;99.90;;;;;;4987916;28;20076;-74
2022/09/25 00:36:24;;;;;;;7.60;2.90;;;8.90;99.90;;;;;;4987144;28;20043;-75
2022/09/25 00:38:49;;;;;;;8.05;2.30;;;8.90;99.90;;;;;;4977440;28;20096;-74
2022/09/25 00:41:20;;;;;;;7.10;2.70;;;8.90;99.90;;;;;;4987835;28;20133;-74
2022/09/25 00:43:49;;;;;;;11.02;2.75;;;8.90;99.90;;;;;;4985179;28;20046;-74
2022/09/25 00:46:33;;;;;;;7.45;2.75;;;8.90;99.90;;;;;;4987095;28;20053;-74
2022/09/25 00:49:22;;;;;;;9.13;2.60;;;8.90;99.90;;;;;;4983594;28;20051;-73
2022/09/25 00:51:51;;;;;;;5.93;2.70;;;8.90;99.90;;;;;;4985181;28;20042;-74
2022/09/25 00:54:23;;;;;;;8.88;2.92;;;8.90;99.90;;;;;;4987212;28;20411;-73
2022/09/25 00:56:51;;;;;;;8.18;2.90;;;8.90;99.90;;;;;;4981036;28;20043;-74
2022/09/25 00:59:21;;;;;;;7.15;2.72;;;8.80;99.90;;;;;;4981467;28;20038;-74
2022/09/25 01:01:47;;;;;;;9.25;3.20;;;8.80;99.90;;;;;;4983803;28;20049;-74
2022/09/25 01:04:14;;;;;;;9.30;2.80;;;8.90;99.90;;;;;;4988189;28;20039;-72
2022/09/25 01:06:40;;;;;;;7.57;3.58;;;8.80;99.90;;;;;;4989301;28;20042;-74
2022/09/25 01:09:06;;;;;;;8.60;3.47;;;8.90;99.90;;;;;;4987485;28;20050;-73
2022/09/25 01:11:32;;;;;;;8.90;3.60;;;8.90;99.90;;;;;;4984596;28;20042;-73
2022/09/25 01:14:01;;;;;;;10.25;3.03;;;8.80;99.90;;;;;;4975842;28;20065;-73
2022/09/25 01:16:45;;;;;;;6.57;2.70;;;8.80;99.90;;;;;;4986876;28;20061;-74
2022/09/25 01:19:21;;;;;;;11.55;2.90;;;8.80;99.90;;;;;;4983477;28;20047;-74
2022/09/25 01:22:14;;;;;;;11.73;3.80;;;8.80;99.90;;;;;;4988583;28;20074;-74
2022/09/25 01:24:48;;;;;;;9.52;3.08;;;8.80;99.90;;;;;;4984032;28;20085;-73
2022/09/25 01:27:25;;;;;;;11.00;3.10;;;8.80;99.90;;;;;;4987739;28;20039;-75
2022/09/25 01:30:14;;;;;;;9.88;2.97;;;8.80;99.90;;;;;;4975979;28;20171;-74
2022/09/25 01:32:53;;;;;;;10.98;2.33;;;8.80;99.90;;;;;;4969239;28;20042;-75
2022/09/25 01:35:31;;;;;;;5.82;2.50;;;8.70;99.90;;;;;;4974447;28;20046;-74
2022/09/25 01:38:19;;;;;;;6.57;2.42;;;8.70;99.90;;;;;;4985487;28;20053;-74
2022/09/25 01:41:01;;;;;;;6.68;2.55;;;8.60;99.90;;;;;;4987488;28;20503;-74
2022/09/25 01:43:36;;;;;;;6.10;2.10;;;8.60;99.90;;;;;;4990392;28;20077;-74
2022/09/25 01:46:14;;;;;;;5.72;1.60;;;8.60;99.90;;;;;;4989007;28;20050;-74
2022/09/25 01:48:43;;;;;;;2.13;1.23;;;8.50;99.90;;;;;;4987010;28;20046;-74
2022/09/25 01:51:17;;;;;;;3.25;1.70;;;8.40;99.90;;;;;;4987275;28;20042;-72
2022/09/25 01:53:57;;;;;;;3.63;2.17;;;8.40;99.90;;;;;;4982440;28;20035;-74
2022/09/25 01:56:32;;;;;;;5.65;1.83;;;8.40;99.90;;;;;;4985415;28;20046;-74
2022/09/25 01:59:38;;;;;;;3.28;1.73;;;8.30;99.90;;;;;;4985279;28;20049;-74
2022/09/25 02:02:12;;;;;;;6.43;2.30;;;8.30;99.90;;;;;;4964144;28;20117;-75
2022/09/25 02:04:42;;;;;;;8.10;2.53;;;8.30;99.90;;;;;;4982510;28;20049;-75
2022/09/25 02:07:13;;;;;;;10.55;2.80;;;8.30;99.90;;;;;;4978471;28;20054;-75
2022/09/25 02:10:07;;;;;;;7.78;2.55;;;8.30;99.90;;;;;;4981070;28;20046;-75
2022/09/25 02:12:39;;;;;;;10.50;3.00;;;8.30;99.90;;;;;;4972491;28;20039;-73
2022/09/25 02:15:15;;;;;;;;;;;8.30;99.90;;;;;;4986094;28;20053;-74
2022/09/25 02:20:35;;;;;;;5.07;2.20;;;8.30;99.90;;;;;;4982245;28;20042;-73
2022/09/25 02:23:17;;;;;;;3.88;1.90;;;8.30;99.90;;;;;;4989371;28;20135;-73
2022/09/25 02:25:59;;;;;;;7.10;2.42;;;8.20;99.90;;;;;;4978174;28;20042;-73
2022/09/25 02:28:25;;;;;;;3.95;1.70;;;8.20;99.90;;;;;;4982747;28;20101;-73
2022/09/25 02:30:53;;;;;;;3.88;1.83;;;8.20;99.90;;;;;;4981262;28;20048;-73
2022/09/25 02:33:19;;;;;;;3.75;1.88;;;8.10;99.90;;;;;;4980659;28;20034;-74
2022/09/25 02:35:45;;;;;;;5.07;2.00;;;8.10;99.90;;;;;;4985848;28;20085;-74
2022/09/25 02:38:10;;;;;;;4.32;2.20;;;8.10;99.90;;;;;;4987470;28;20077;-74
2022/09/25 02:40:47;;;;;;;5.50;2.35;;;8.10;99.90;;;;;;4982606;28;20057;-75
2022/09/25 02:43:24;;;;;;;7.20;2.75;;;8.10;99.90;;;;;;4988200;28;20050;-74
2022/09/25 02:46:05;;;;;;;5.78;2.60;;;8.00;99.90;;;;;;4980154;28;20081;-74
2022/09/25 02:48:58;;;;;;;7.35;2.40;;;8.00;99.90;;;;;;4985553;28;20104;-74
2022/09/25 02:51:35;;;;;;;6.00;1.48;;;8.00;99.90;;;;;;4988761;28;20047;-74
2022/09/25 02:54:06;;;;;;;6.72;1.60;;;8.00;99.90;;;;;;4985390;28;20078;-74
2022/09/25 02:56:46;;;;;;;12.30;2.20;;;8.00;99.90;;;;;;4976590;28;20067;-74
2022/09/25 02:59:19;;;;;;;6.25;2.30;;;8.00;99.90;;;;;;4979900;28;20415;-73
2022/09/25 03:01:46;;;;;;;9.18;2.20;;;8.00;99.90;;;;;;4984390;28;20042;-74
2022/09/25 03:04:14;;;;;;;9.90;2.70;;;8.00;99.90;;;;;;4979188;28;20108;-75
2022/09/25 03:06:41;;;;;;;7.22;3.42;;;8.00;99.90;;;;;;4970672;28;20049;-74
2022/09/25 03:09:08;;;;;;;9.25;3.13;;;8.00;99.90;;;;;;4987987;28;20170;-74
2022/09/25 03:11:40;;;;;;;8.02;3.05;;;8.00;99.90;;;;;;4977944;28;20054;-74
2022/09/25 03:14:06;;;;;;;2.87;2.43;;;8.00;99.90;;;;;;4984599;28;20045;-74
2022/09/25 03:16:46;;;;;;;10.48;3.33;;;8.00;99.90;;;;;;4987508;28;20396;-74
2022/09/25 03:19:12;;;;;;;8.95;2.70;;;8.00;99.90;;;;;;4982855;28;20066;-74
2022/09/25 03:21:38;;;;;;;22.08;2.40;;;8.00;99.90;;;;;;4981534;28;20034;-74
2022/09/25 03:24:04;;;;;;;4.32;1.80;;;8.00;99.90;;;;;;4986789;28;20065;-74
2022/09/25 03:26:30;;;;;;;5.78;1.50;;;8.00;99.90;;;;;;4982284;28;20295;-74
2022/09/25 03:29:01;;;;;;;7.55;1.67;;;8.00;99.90;;;;;;4984381;28;20129;-74
2022/09/25 03:31:28;;;;;;;5.88;2.00;;;7.90;99.90;;;;;;4983764;28;20491;-74
2022/09/25 03:33:54;;;;;;;6.65;2.50;;;7.90;99.90;;;;;;4980582;28;20054;-73
2022/09/25 03:36:22;;;;;;;9.15;2.50;;;7.90;99.90;;;;;;4982467;28;20594;-74
2022/09/25 03:38:51;;;;;;;7.47;2.45;;;7.90;99.90;;;;;;4984808;28;20047;-74
2022/09/25 03:41:20;;;;;;;13.75;3.20;;;7.90;99.90;;;;;;4967853;28;20078;-74
2022/09/25 03:43:50;;;;;;;7.60;2.88;;;7.80;99.90;;;;;;4988991;28;20122;-73
2022/09/25 03:46:17;;;;;;;9.52;3.45;;;7.90;99.90;;;;;;4980953;28;20202;-74
2022/09/25 03:48:43;;;;;;;7.70;3.22;;;7.80;99.90;;;;;;4986285;28;20042;-73
2022/09/25 03:51:09;;;;;;;5.95;2.92;;;7.80;99.90;;;;;;4983789;28;20420;-73
2022/09/25 03:53:35;;;;;;;7.60;3.30;;;7.80;99.90;;;;;;4985131;28;20035;-73
2022/09/25 03:56:04;;;;;;;6.45;2.58;;;7.90;99.90;;;;;;4987533;28;20057;-73
2022/09/25 03:58:29;;;;;;;4.25;2.22;;;7.80;99.90;;;;;;4984228;28;20057;-73
2022/09/25 04:00:56;;;;;;;5.82;2.10;;;7.80;99.90;;;;;;4966850;28;20054;-73
2022/09/25 04:03:29;;;;;;;4.63;2.10;;;7.80;99.90;;;;;;4978576;28;20052;-73
2022/09/25 04:05:56;;;;;;;4.03;1.70;;;7.80;99.90;;;;;;4976281;28;20109;-72
2022/09/25 04:08:24;;;;;;;3.15;1.60;;;7.80;99.90;;;;;;4964188;28;20046;-73
2022/09/25 04:10:50;;;;;;;11.50;2.35;;;7.70;99.90;;;;;;4978371;28;20039;-73
2022/09/25 04:13:18;;;;;;;3.53;2.15;;;7.70;99.90;;;;;;4981973;28;20050;-73
2022/09/25 04:15:44;;;;;;;4.30;2.47;;;7.70;99.90;;;;;;4983347;28;20042;-74
2022/09/25 04:18:09;;;;;;;5.50;2.10;;;7.70;99.90;;;;;;4980820;28;20128;-73
2022/09/25 04:20:37;;;;;;;4.55;2.55;;;7.70;99.90;;;;;;4984335;28;21280;-73
2022/09/25 04:23:02;;;;;;;7.05;2.30;;;7.70;99.90;;;;;;4985614;28;20046;-73
2022/09/25 04:25:28;;;;;;;9.73;2.42;;;7.70;99.90;;;;;;4976201;28;20121;-73
2022/09/25 04:27:55;;;;;;;7.97;2.38;;;7.70;99.90;;;;;;4981173;28;20038;-73
2022/09/25 04:30:22;;;;;;;6.85;2.42;;;7.60;99.90;;;;;;4983056;28;20549;-73
2022/09/25 04:35:32;;;;;;;4.97;2.10;;;7.60;99.90;;;;;;4985183;28;20071;-74
2022/09/25 04:37:57;;;;;;;4.20;2.20;;;7.60;99.90;;;;;;4975434;28;20545;-74
2022/09/25 04:40:23;;;;;;;8.88;2.03;;;7.60;99.90;;;;;;4989347;28;20052;-74
2022/09/25 04:42:57;;;;;;;5.38;2.20;;;7.60;99.90;;;;;;4990857;28;20043;-74
2022/09/25 04:45:25;;;;;;;5.18;2.17;;;7.60;99.90;;;;;;4990846;28;20050;-74
2022/09/25 04:47:55;;;;;;;6.25;2.10;;;7.60;99.90;;;;;;4985034;28;20050;-75
2022/09/25 04:50:21;;;;;;;4.40;2.20;;;7.60;99.90;;;;;;4990590;28;20050;-74
2022/09/25 04:52:50;;;;;;;2.78;1.42;;;7.60;99.90;;;;;;4984748;28;20034;-74
2022/09/25 04:55:20;;;;;;;1.88;1.50;;;7.70;99.90;;;;;;4978825;28;20397;-74
2022/09/25 04:57:49;;;;;;;4.60;1.92;;;7.70;99.90;;;;;;4984899;28;20046;-74
2022/09/25 05:00:17;;;;;;;3.55;1.95;;;7.70;99.90;;;;;;4978383;28;20105;-73
2022/09/25 05:02:43;;;;;;;6.90;2.67;;;7.70;99.90;;;;;;4989564;28;20076;-73
2022/09/25 05:05:09;;;;;;;5.32;2.72;;;7.70;99.90;;;;;;4992121;28;20074;-72
2022/09/25 05:07:35;;;;;;;8.02;2.45;;;7.70;99.90;;;;;;4992249;28;20051;-73
2022/09/25 05:10:00;;;;;;;8.60;2.78;;;7.80;99.90;;;;;;4982503;28;20050;-75
2022/09/25 05:12:26;;;;;;;7.85;3.00;;;7.80;99.90;;;;;;4994356;28;20050;-75
2022/09/25 05:14:51;;;;;;;5.57;2.85;;;7.90;99.90;;;;;;4973381;28;20073;-74
2022/09/25 05:17:17;;;;;;;8.45;2.95;;;7.90;99.90;;;;;;4984814;28;20129;-75
2022/09/25 05:19:42;;;;;;;7.30;2.78;;;7.90;99.90;;;;;;4973489;28;20050;-74
2022/09/25 05:22:08;;;;;;;6.22;2.67;;;7.90;99.90;;;;;;4987580;28;20046;-74
2022/09/25 05:24:34;;;;;;;8.73;3.30;;;7.90;99.90;;;;;;5007037;28;20049;-74
2022/09/25 05:27:00;;;;;;;7.75;3.05;;;8.00;99.90;;;;;;4987885;28;20196;-75
2022/09/25 05:29:25;;;;;;;8.65;3.00;;;8.00;99.90;;;;;;4990759;28;20063;-74
2022/09/25 05:31:51;;;;;;;6.72;2.65;;;7.90;99.90;;;;;;4987829;28;20069;-75
2022/09/25 05:34:17;;;;;;;6.07;2.90;;;7.90;99.90;;;;;;4971295;28;20042;-74
2022/09/25 05:36:42;;;;;;;11.25;3.00;;;7.90;99.90;;;;;;4987053;28;20062;-74
2022/09/25 05:39:12;;;;;;;10.65;3.13;;;7.90;99.90;;;;;;4990589;28;20034;-73
2022/09/25 05:41:37;;;;;;;9.70;3.20;;;7.90;99.90;;;;;;4987091;28;20042;-74
2022/09/25 05:44:05;;;;;;;10.18;3.13;;;7.90;99.90;;;;;;4988462;28;20135;-73
2022/09/25 05:46:39;;;;;;;8.55;3.20;;;7.90;99.90;;;;;;4986343;28;20053;-73
2022/09/25 05:49:05;;;;;;;5.93;3.50;;;7.90;99.90;;;;;;4986308;28;20042;-73
2022/09/25 05:51:32;;;;;;;11.98;3.78;;;7.90;99.90;;;;;;4988420;28;20046;-73
2022/09/25 05:53:59;;;;;;;11.23;3.42;;;7.90;99.90;;;;;;4988625;28;20043;-72
2022/09/25 05:56:25;;;;;;;7.82;3.22;;;8.00;99.90;;;;;;4987303;28;20038;-73
2022/09/25 05:58:51;;;;;;;12.73;3.28;;;7.90;99.90;;;;;;4969523;28;20046;-73
2022/09/25 06:01:18;;;;;;;9.20;2.75;;;8.00;99.90;;;;;;4987946;28;20108;-73
2022/09/25 06:03:44;;;;;;;6.72;2.50;;;8.00;99.90;;;;;;4981314;28;20045;-73
2022/09/25 06:06:10;;;;;;;5.82;2.30;;;8.00;99.90;;;;;;4986430;28;20042;-73
2022/09/25 06:08:35;;;;;;;4.95;2.20;;;8.00;99.90;;;;;;4986024;28;20611;-73
2022/09/25 06:11:02;;;;;;;5.28;2.15;;;8.00;99.90;;;;;;4984919;28;20065;-74
2022/09/25 06:13:33;;;;;;;5.57;2.00;;;8.00;99.90;;;;;;4989065;28;20125;-73
2022/09/25 06:16:00;;;;;;;5.25;2.40;;;8.00;99.90;;;;;;4986753;28;20061;-73
2022/09/25 06:18:26;;;;;;;8.35;2.85;;;8.10;99.90;;;;;;4967553;28;20159;-74
2022/09/25 06:21:02;;;;;;;6.75;3.25;;;8.00;99.90;;;;;;4985432;28;20144;-73
2022/09/25 06:23:28;;;;;;;9.13;3.40;;;8.00;99.90;;;;;;4988147;28;20046;-74
2022/09/25 06:25:53;;;;;;;9.07;3.08;;;8.00;99.90;;;;;;4984463;28;20514;-73
2022/09/25 06:28:19;;;;;;;9.38;2.70;;;8.00;99.90;;;;;;4986893;28;20038;-74
2022/09/25 06:30:46;;;;;;;8.20;2.88;;;8.10;99.90;;;;;;4986088;28;20495;-74
2022/09/25 06:33:13;;;;;;;7.50;2.80;;;8.10;99.90;;;;;;4967180;28;20212;-73
2022/09/25 06:35:43;;;;;;;6.32;3.17;;;8.20;99.90;;;;;;4984698;28;20406;-74
2022/09/25 06:38:09;;;;;;;9.60;3.45;;;8.20;99.90;;;;;;4982042;28;20049;-74
2022/09/25 06:40:36;;;;;;;9.15;3.08;;;8.20;99.90;;;;;;4983351;28;20038;-75
2022/09/25 06:43:03;;;;;;;8.57;3.10;;;8.20;99.90;;;;;;4979343;28;20053;-74
2022/09/25 06:45:32;;;;;;;10.00;3.17;;;8.30;99.90;;;;;;4981760;28;20049;-74
2022/09/25 06:48:10;;;;;;;8.45;3.17;;;8.30;99.90;;;;;;4981846;28;20042;-74
2022/09/25 06:50:40;;;;;;;7.88;3.22;;;8.40;99.90;;;;;;4985061;28;20042;-75
2022/09/25 06:53:06;;;;;;;9.85;3.67;;;8.40;99.90;;;;;;4983772;28;20042;-75
2022/09/25 06:55:31;;;;;;;10.73;3.65;;;8.50;99.90;;;;;;4967324;28;20046;-74
2022/09/25 06:57:57;;;;;;;8.70;3.80;;;8.60;99.90;;;;;;4983081;28;20045;-74
2022/09/25 07:00:23;;;;;;;7.90;3.50;;;8.60;99.90;;;;;;4979095;28;20058;-73
2022/09/25 07:05:33;;;;;;;11.20;3.55;;;8.80;99.90;;;;;;4976655;28;20074;-73
2022/09/25 07:07:59;;;;;;;10.48;3.45;;;8.80;99.90;;;;;;5000234;28;20046;-73
2022/09/25 07:10:25;;;;;;;11.70;3.33;;;8.90;99.90;;;;;;4961408;28;20049;-73
2022/09/25 07:12:51;;;;;;;12.57;3.60;;;8.90;99.90;;;;;;4979562;28;20030;-73
2022/09/25 07:15:17;;;;;;;12.68;3.55;;;9.00;99.90;;;;;;4986074;28;20046;-73
2022/09/25 07:17:44;;;;;;;14.98;3.47;;;9.10;99.90;;;;;;4977234;28;20047;-73
2022/09/25 07:20:14;;;;;;;9.45;3.60;;;9.20;99.90;;;;;;4980135;28;20391;-73
2022/09/25 07:22:42;;;;;;;14.63;4.00;;;9.30;99.90;;;;;;4979952;28;20046;-73
2022/09/25 07:25:09;;;;;;;16.60;4.38;;;9.40;99.90;;;;;;4985630;28;20061;-73
2022/09/25 07:27:35;;;;;;;12.30;4.05;;;9.50;99.90;;;;;;4978161;28;20038;-73
2022/09/25 07:30:02;;;;;;;10.05;3.53;;;9.60;99.90;;;;;;4978226;28;20121;-73
2022/09/25 07:32:28;;;;;;;9.35;2.95;;;9.70;99.90;;;;;;4979558;28;20104;-73
2022/09/25 07:34:54;;;;;;;10.40;3.50;;;9.70;99.90;;;;;;4982847;28;20034;-73
2022/09/25 07:37:19;;;;;;;13.32;3.55;;;9.90;99.90;;;;;;4983660;28;20064;-73
2022/09/25 07:39:45;;;;;;;9.25;3.20;;;9.90;99.90;;;;;;4980515;28;20046;-72
2022/09/25 07:42:12;;;;;;;12.35;3.15;;;10.00;99.90;;;;;;4984121;28;20043;-74
2022/09/25 07:44:38;;;;;;;10.18;2.88;;;10.10;99.90;;;;;;4983692;28;20100;-74
2022/09/25 07:47:05;;;;;;;8.82;2.53;;;10.20;99.90;;;;;;4980834;28;20113;-74
2022/09/25 07:49:32;;;;;;;10.82;2.95;;;10.30;99.90;;;;;;4984915;28;20439;-74
2022/09/25 07:51:58;;;;;;;7.53;2.65;;;10.30;99.90;;;;;;4980500;28;20133;-74
2022/09/25 07:54:24;;;;;;;11.23;2.97;;;10.40;99.90;;;;;;4978454;28;20047;-74
2022/09/25 07:56:50;;;;;;;11.50;2.65;;;10.50;99.90;;;;;;4981856;28;20043;-73
2022/09/25 07:59:16;;;;;;;12.18;2.72;;;10.50;99.90;;;;;;4976791;28;20099;-72
2022/09/25 08:01:41;;;;;;;8.45;2.40;;;10.60;99.90;;;;;;4973135;28;20093;-72
2022/09/25 08:04:07;;;;;;;8.38;2.25;;;10.70;99.90;;;;;;4978765;28;20054;-73
2022/09/25 08:06:34;;;;;;;12.85;2.50;;;10.70;99.90;;;;;;4980967;28;20495;-72
2022/09/25 08:09:00;;;;;;;6.47;2.13;;;10.70;99.90;;;;;;4984277;28;20414;-73
2022/09/25 08:11:27;;;;;;;10.10;2.28;;;10.80;99.90;;;;;;4985199;28;20133;-72
2022/09/25 08:13:53;;;;;;;9.55;2.15;;;10.90;99.90;;;;;;5000118;28;20149;-72
2022/09/25 08:16:21;;;;;;;6.97;2.13;;;11.00;99.90;;;;;;4978311;28;20050;-73
2022/09/25 08:18:48;;;;;;;7.25;2.00;;;11.10;99.90;;;;;;4987316;28;20050;-73
2022/09/25 08:21:16;;;;;;;8.52;1.65;;;11.10;99.90;;;;;;4989774;28;20049;-73
2022/09/25 08:23:43;;;;;;;11.65;2.00;;;11.20;99.90;;;;;;4987886;28;20054;-72
2022/09/25 08:26:09;;;;;;;9.98;2.00;;;11.30;99.90;;;;;;4991504;28;20043;-73
2022/09/25 08:28:35;;;;;;;8.65;1.83;;;11.50;99.90;;;;;;4979407;28;20050;-72
2022/09/25 08:31:02;;;;;;;8.93;1.58;;;11.50;99.90;;;;;;4979522;28;20105;-75
2022/09/25 08:33:29;;;;;;;6.55;1.50;;;11.70;99.90;;;;;;4983102;28;20096;-76
2022/09/25 08:36:03;;;;;;;7.65;1.27;;;11.80;99.90;;;;;;4987835;28;20046;-72
2022/09/25 08:38:32;;;;;;;8.07;1.20;;;11.90;99.90;;;;;;4984323;28;20042;-73
2022/09/25 08:41:07;;;;;;;6.93;1.40;;;12.00;99.90;;;;;;4979591;28;20050;-73
2022/09/25 08:43:38;;;;;;;7.35;1.35;;;12.10;99.90;;;;;;4982491;28;20047;-73
2022/09/25 08:49:10;;;;;;;5.97;1.23;;;12.30;99.90;;;;;;4978342;28;20046;-73
2022/09/25 08:51:48;;;;;;;7.72;1.23;;;12.50;99.90;;;;;;4991199;28;20070;-73
2022/09/25 08:54:25;;;;;;;6.80;1.23;;;12.60;99.90;;;;;;4987494;28;20046;-73
2022/09/25 08:56:53;;;;;;;7.53;1.20;;;12.70;99.90;;;;;;4982718;28;20082;-72
2022/09/25 08:59:46;;;;;;;5.50;1.30;;;12.80;99.90;;;;;;4981366;28;20060;-73
2022/09/25 09:02:19;;;;;;;5.57;1.42;;;12.80;99.90;;;;;;4979173;28;20138;-73
2022/09/25 09:04:52;;;;;;;7.10;1.40;;;12.90;99.90;;;;;;4983944;28;20155;-73
2022/09/25 09:07:25;;;;;;;5.32;1.27;;;12.90;99.90;;;;;;4989346;28;20042;-73
2022/09/25 09:10:16;;;;;;;6.70;1.50;;;13.00;99.90;;;;;;4985101;28;20446;-73
2022/09/25 09:12:49;;;;;;;6.13;1.02;;;13.10;99.90;;;;;;4986186;28;20486;-73
2022/09/25 09:15:39;;;;;;;4.15;1.00;;;13.20;99.90;;;;;;4985012;28;20039;-73
2022/09/25 09:18:20;;;;;;;6.32;1.23;;;13.30;99.90;;;;;;4986510;28;20050;-73
2022/09/25 09:20:57;;;;;;;3.65;0.90;;;13.50;99.90;;;;;;4991566;28;20038;-73
2022/09/25 09:23:31;;;;;;;6.28;1.42;;;13.60;99.90;;;;;;4980848;28;20081;-73
2022/09/25 09:26:11;;;;;;;5.97;1.15;;;13.60;99.90;;;;;;4990789;28;20054;-73
2022/09/25 09:28:59;;;;;;;4.43;1.20;;;13.70;99.90;;;;;;4982326;28;20035;-73
2022/09/25 09:31:46;;;;;;;9.23;1.60;;;13.80;99.90;;;;;;4989304;28;20042;-74
2022/09/25 09:34:46;;;;;;;8.98;1.30;;;13.80;99.90;;;;;;4961370;28;20092;-72
2022/09/25 09:37:30;;;;;;;7.75;1.20;;;13.90;99.90;;;;;;4988578;28;20056;-73
2022/09/25 09:40:23;;;;;;;5.25;0.85;;;14.10;99.90;;;;;;4987602;28;20053;-72
2022/09/25 09:43:02;;;;;;;5.78;1.10;;;14.30;99.90;;;;;;4986939;28;20047;-73
2022/09/25 09:46:05;;;;;;;6.95;1.10;;;14.60;99.90;;;;;;4985654;28;20484;-72
2022/09/25 09:48:51;;;;;;;4.25;0.98;;;14.80;99.90;;;;;;4971864;28;20053;-73
2022/09/25 09:51:26;;;;;;;3.00;0.68;;;14.80;99.90;;;;;;4983806;28;20035;-73
2022/09/25 09:53:59;;;;;;;3.47;0.80;;;14.60;99.90;;;;;;4985059;28;20077;-74
2022/09/25 09:56:27;;;;;;;;;;;14.40;99.90;;;;;;4986304;28;20046;-73
2022/09/25 09:58:59;;;;;;;2.42;0.57;;;14.20;99.90;;;;;;4986056;28;19937;-73
2022/09/25 10:01:33;;;;;;;3.13;0.77;;;14.00;99.90;;;;;;4979122;28;20049;-73
2022/09/25 10:04:13;;;;;;;2.20;0.80;;;13.80;99.90;;;;;;4988117;28;20320;-73
2022/09/25 10:06:43;;;;;;;1.77;0.57;;;13.70;99.90;;;;;;4990041;28;20034;-73
2022/09/25 10:09:13;;;;;;;2.00;0.65;;;13.70;99.90;;;;;;4990540;28;20046;-74
2022/09/25 10:11:40;;;;;;;2.53;0.57;;;13.60;99.90;;;;;;4983017;28;20080;-73
2022/09/25 10:14:19;;;;;;;1.52;0.57;;;13.60;99.90;;;;;;4985622;28;20129;-73
2022/09/25 10:16:49;;;;;;;1.80;0.70;;;13.60;99.90;;;;;;4986352;28;20038;-72
2022/09/25 10:19:22;;;;;;;1.60;0.60;;;13.60;99.90;;;;;;4987660;28;20038;-75
2022/09/25 10:22:13;;;;;;;1.00;0.60;;;13.70;99.90;;;;;;4986027;28;20045;-74
2022/09/25 10:24:52;;;;;;;1.42;0.70;;;13.70;99.90;;;;;;4987415;28;20062;-74
2022/09/25 10:27:31;;;;;;;3.40;0.70;;;13.70;99.90;;;;;;4982821;28;20035;-75
2022/09/25 10:30:09;;;;;;;4.93;0.80;;;13.80;99.90;;;;;;4964358;28;20042;-74
2022/09/25 10:32:50;;;;;;;2.50;0.80;;;13.80;99.90;;;;;;4985270;28;20042;-74
2022/09/25 10:35:21;;;;;;;3.10;0.70;;;13.90;99.90;;;;;;4986143;28;20057;-75
2022/09/25 10:37:51;;;;;;;2.05;0.70;;;14.00;99.90;;;;;;4981914;28;20403;-74
2022/09/25 10:40:24;;;;;;;5.43;1.20;;;14.20;99.90;;;;;;4983014;28;20101;-74
2022/09/25 10:43:05;;;;;;;4.43;0.77;;;14.30;99.90;;;;;;4983675;28;20415;-74
2022/09/25 10:45:34;;;;;;;2.65;0.80;;;14.50;99.90;;;;;;4966762;28;20061;-75
2022/09/25 10:50:44;;;;;;;1.90;0.95;;;14.70;99.90;;;;;;4988290;28;20061;-74
2022/09/25 10:53:27;;;;;;;3.63;0.95;;;14.90;99.90;;;;;;4983164;28;20160;-74
2022/09/25 10:55:59;;;;;;;3.55;0.90;;;15.00;99.90;;;;;;4982114;28;20049;-74
2022/09/25 10:58:51;;;;;;;1.90;0.80;;;15.20;99.90;;;;;;4979712;28;20526;-72
2022/09/25 11:01:17;;;;;;;2.55;0.80;;;15.60;99.90;;;;;;4976143;28;20042;-73
2022/09/25 11:03:56;;;;;;;4.55;1.40;;;16.00;99.90;;;;;;4978688;28;20053;-75
2022/09/25 11:06:28;;;;;;;4.40;1.40;;;16.40;99.90;;;;;;4979642;28;20077;-75
2022/09/25 11:09:17;;;;;;;6.57;1.20;;;16.70;99.90;;;;;;4968314;28;20043;-75
2022/09/25 11:11:45;;;;;;;4.10;0.80;;;17.00;99.90;;;;;;4985154;28;20093;-75
2022/09/25 11:14:31;;;;;;;4.90;1.20;;;16.90;99.90;;;;;;4982813;28;20519;-74
2022/09/25 11:16:58;;;;;;;5.03;0.80;;;17.00;99.90;;;;;;4987930;28;20054;-74
2022/09/25 11:19:28;;;;;;;5.28;1.10;;;16.90;99.90;;;;;;4987605;28;20073;-74
2022/09/25 11:22:07;;;;;;;4.47;1.00;;;16.80;99.90;;;;;;4984415;28;20053;-75
2022/09/25 11:24:55;;;;;;;5.20;1.23;;;16.70;99.90;;;;;;4986080;28;20046;-75
2022/09/25 11:27:31;;;;;;;4.35;1.02;;;16.50;99.90;;;;;;4964354;28;20137;-75
2022/09/25 11:30:08;;;;;;;5.30;1.17;;;16.30;99.90;;;;;;4983879;28;20085;-74
2022/09/25 11:33:01;;;;;;;5.45;1.00;;;16.20;99.90;;;;;;4982242;28;20124;-75
2022/09/25 11:35:29;;;;;;;2.13;0.90;;;16.00;99.90;;;;;;4983437;28;20045;-76
2022/09/25 11:37:55;;;;;;;4.10;0.80;;;15.60;99.90;;;;;;4950042;28;1017903;-76
2022/09/25 11:43:15;;;;;;;2.67;0.75;;;15.00;99.90;;;;;;4989141;28;20512;-76
2022/09/25 11:45:48;;;;;;;4.85;1.17;;;14.70;99.90;;;;;;4985242;28;20520;-76
2022/09/25 11:48:39;;;;;;;3.65;0.75;;;14.60;99.90;;;;;;4987679;28;20104;-75
2022/09/25 11:51:41;;;;;;;5.82;1.35;;;14.50;99.90;;;;;;4987614;28;20050;-76
2022/09/25 11:54:34;;;;;;;4.25;1.00;;;14.40;99.90;;;;;;4972693;28;20034;-75
2022/09/25 11:57:11;;;;;;;4.10;0.90;;;14.30;99.90;;;;;;4982025;28;20547;-75
2022/09/25 12:00:03;;;;;;;2.75;0.90;;;14.20;99.90;;;;;;4985280;28;20050;-76
2022/09/25 12:03:07;;;;;;;4.68;1.13;;;14.20;99.90;;;;;;4992766;28;20049;-75
2022/09/25 12:05:48;;;;;;;3.33;0.80;;;14.20;99.90;;;;;;4986382;28;20050;-76
2022/09/25 12:08:34;;;;;;;2.63;1.00;;;14.20;99.90;;;;;;4984675;28;20077;-76
2022/09/25 12:11:45;;;;;;;4.00;0.98;;;14.20;99.90;;;;;;4987638;28;20569;-74
2022/09/25 12:14:28;;;;;;;6.05;1.00;;;14.20;99.90;;;;;;4984835;28;20050;-75
2022/09/25 12:16:57;;;;;;;4.50;1.30;;;14.30;99.90;;;;;;4992745;28;20057;-74
2022/09/25 12:19:52;;;;;;;3.20;1.00;;;14.40;99.90;;;;;;4988236;28;20061;-74
2022/09/25 12:22:22;;;;;;;3.97;0.85;;;14.50;99.90;;;;;;4989763;28;20058;-74
2022/09/25 12:24:50;;;;;;;2.15;0.90;;;14.60;99.90;;;;;;4982625;28;20093;-75
2022/09/25 12:27:25;;;;;;;6.70;1.38;;;14.80;99.90;;;;;;4989298;28;20093;-75
2022/09/25 12:29:56;;;;;;;2.58;1.30;;;15.00;99.90;;;;;;4986260;28;20477;-75
2022/09/25 12:33:12;;;;;;;2.50;1.25;;;15.40;99.90;;;;;;4985025;28;20069;-75
2022/09/25 12:35:49;;;;;;;3.47;0.73;;;16.00;99.90;;;;;;4936682;28;20443;-75
2022/09/25 12:38:21;;;;;;;2.42;0.70;;;16.60;99.90;;;;;;4935654;28;20055;-74
2022/09/25 12:41:11;;;;;;;3.17;0.63;;;16.90;99.90;;;;;;4967041;28;20129;-75
2022/09/25 12:44:09;;;;;;;2.35;0.75;;;17.40;99.90;;;;;;4991468;28;20437;-76
2022/09/25 12:46:41;;;;;;;3.38;1.08;;;17.70;99.90;;;;;;4969014;28;20050;-75
2022/09/25 12:49:26;;;;;;;4.22;0.80;;;18.00;99.90;;;;;;4981745;28;20046;-75
2022/09/25 12:51:56;;;;;;;2.83;1.00;;;18.30;99.90;;;;;;4983467;28;20043;-74
2022/09/25 12:54:57;;;;;;;3.20;0.77;;;18.30;99.90;;;;;;4984377;28;20117;-75
2022/09/25 12:57:22;;;;;;;4.38;0.90;;;18.70;99.90;;;;;;4990209;28;20084;-75
2022/09/25 12:59:56;;;;;;;3.47;0.90;;;18.60;99.90;;;;;;4990831;28;20046;-75
2022/09/25 13:02:51;;;;;;;4.05;1.10;;;18.30;99.90;;;;;;4990080;28;20077;-75
2022/09/25 13:05:44;;;;;;;3.35;0.65;;;17.90;99.90;;;;;;4986040;28;20054;-75
2022/09/25 13:08:42;;;;;;;2.75;0.60;;;17.90;99.90;;;;;;4959955;28;20193;-75
2022/09/25 13:11:15;;;;;;;3.83;0.85;;;18.10;99.90;;;;;;4969338;28;20042;-75
2022/09/25 13:13:52;;;;;;;4.13;1.13;;;18.20;99.90;;;;;;4987619;28;20142;-76
2022/09/25 13:16:18;;;;;;;3.10;0.70;;;18.50;99.90;;;;;;4972772;28;20073;-74
2022/09/25 13:19:07;;;;;;;4.00;0.82;;;18.60;99.90;;;;;;4989272;28;20078;-74
2022/09/25 13:21:42;;;;;;;3.20;1.00;;;19.00;99.90;;;;;;4991865;28;20046;-75
2022/09/25 13:24:12;;;;;;;4.18;0.85;;;19.30;99.90;;;;;;4988053;28;20042;-75
2022/09/25 13:27:02;;;;;;;2.53;0.88;;;19.40;99.90;;;;;;4987038;28;20035;-75
2022/09/25 13:29:37;;;;;;;4.15;0.70;;;19.20;99.90;;;;;;4982762;28;20038;-76
2022/09/25 13:32:18;;;;;;;2.75;0.70;;;19.20;99.90;;;;;;4986221;28;20046;-76
2022/09/25 13:34:45;;;;;;;3.42;0.93;;;19.20;99.90;;;;;;4987848;28;20125;-76
2022/09/25 13:37:15;;;;;;;2.30;0.75;;;19.00;99.90;;;;;;4986223;28;20053;-74
2022/09/25 13:42:36;;;;;;;6.55;1.17;;;17.70;99.90;;;;;;4985398;28;20074;-74